createdAt,value
2019-04-22T00:02:20.903Z,60.24
2019-04-22T00:05:01.186Z,60.62
2019-04-22T00:07:43.279Z,60.26
2019-04-22T00:10:19.372Z,60.86
2019-04-22T00:12:47.290Z,60.86
2019-04-22T00:15:10.168Z,60.87
2019-04-22T00:17:55.300Z,60.80
2019-04-22T00:20:14.320Z,60.72
2019-04-22T00:22:44.679Z,61.64
2019-04-22T00:27:57.538Z,62.42
2019-04-22T00:30:20.920Z,61.82
2019-04-22T00:33:03.277Z,62.08
2019-04-22T00:35:36.679Z,62.87
2019-04-22T00:38:14.359Z,63.11
2019-04-22T00:40:41.161Z,62.85
2019-04-22T00:43:04.946Z,63.11
2019-04-22T00:45:38.929Z,63.29
2019-04-22T00:48:16.440Z,63.07
2019-04-22T00:53:20.131Z,64.58
2019-04-22T00:55:46.354Z,64.55
2019-04-22T00:58:22.761Z,64.15
2019-04-22T01:00:49.320Z,63.51
2019-04-22T01:03:19.957Z,63.72
2019-04-22T01:05:46.623Z,63.52
2019-04-22T01:08:21.093Z,64.41
2019-04-22T01:10:50.038Z,64.60
2019-04-22T01:13:21.721Z,64.60
2019-04-22T01:15:47.613Z,64.91
2019-04-22T01:18:21.028Z,64.31
2019-04-22T01:21:11.234Z,63.85
2019-04-22T01:23:23.713Z,63.85
2019-04-22T01:25:55.242Z,64.27
2019-04-22T01:28:18.051Z,64.92
2019-04-22T01:30:49.233Z,64.43
2019-04-22T01:33:16.063Z,64.43
2019-04-22T01:36:04.324Z,64.05
2019-04-22T01:38:31.605Z,64.05
2019-04-22T01:41:07.145Z,64.97
2019-04-22T01:43:50.329Z,65.53
2019-04-22T01:46:07.902Z,65.53
2019-04-22T01:48:39.535Z,65.33
2019-04-22T01:51:01.336Z,65.01
2019-04-22T01:53:44.951Z,65.96
2019-04-22T01:56:08.350Z,65.68
2019-04-22T01:58:36.227Z,66.34
2019-04-22T02:01:09.744Z,65.78
2019-04-22T02:03:40.072Z,65.78
2019-04-22T02:06:17.227Z,66.30
2019-04-22T02:08:44.891Z,65.82
2019-04-22T02:11:24.111Z,66.22
2019-04-22T02:13:44.805Z,65.85
2019-04-22T02:16:15.192Z,65.85
2019-04-22T02:18:44.253Z,66.97
2019-04-22T02:21:07.300Z,64.66
2019-04-22T02:23:47.161Z,66.19
2019-04-22T02:26:23.790Z,67.66
2019-04-22T02:28:58.098Z,67.12
2019-04-22T02:34:11.488Z,66.09
2019-04-22T02:36:22.670Z,67.62
2019-04-22T02:38:58.788Z,67.62
2019-04-22T02:41:26.610Z,67.19
2019-04-22T02:46:34.870Z,66.99
2019-04-22T03:06:33.515Z,68.00
2019-04-22T03:08:59.642Z,68.01
2019-04-22T03:14:46.144Z,67.46
2019-04-22T03:21:27.975Z,68.41
2019-04-22T03:26:32.044Z,68.51
2019-04-22T03:28:57.178Z,67.92
2019-04-22T03:34:54.755Z,66.55
2019-04-22T03:39:28.044Z,67.89
2019-04-22T03:41:57.315Z,68.25
2019-04-22T03:44:28.182Z,68.76
2019-04-22T03:46:53.199Z,69.36
2019-04-22T03:54:29.642Z,70.07
2019-04-22T03:57:17.708Z,70.10
2019-04-22T03:59:33.783Z,70.10
2019-04-22T04:04:30.425Z,71.19
2019-04-22T04:06:59.663Z,71.13
2019-04-22T04:09:27.036Z,71.12
2019-04-22T04:14:32.205Z,71.26
2019-04-22T04:19:24.660Z,71.89
2019-04-22T04:24:34.387Z,71.61
2019-04-22T04:26:54.913Z,72.58
2019-04-22T04:29:36.178Z,71.27
2019-04-22T04:31:58.824Z,71.27
2019-04-22T04:34:28.314Z,72.47
2019-04-22T04:37:18.674Z,72.47
2019-04-22T04:39:26.807Z,71.92
2019-04-22T04:42:07.376Z,72.21
2019-04-22T04:44:34.325Z,71.16
2019-04-22T04:49:24.276Z,71.70
2019-04-22T04:51:56.137Z,71.73
2019-04-22T04:57:11.280Z,71.53
2019-04-22T05:01:55.586Z,69.47
2019-04-22T05:04:37.161Z,68.69
2019-04-22T05:12:12.800Z,69.15
2019-04-22T05:14:28.583Z,68.67
2019-04-22T05:17:10.533Z,67.38
2019-04-22T05:19:37.702Z,67.38
2019-04-22T05:21:58.173Z,66.76
2019-04-22T05:27:10.850Z,67.84
2019-04-22T05:31:57.015Z,67.79
2019-04-22T05:34:28.137Z,68.25
2019-04-22T05:37:00.687Z,68.12
2019-04-22T05:39:42.458Z,68.12
2019-04-22T05:42:03.915Z,67.46
2019-04-22T05:44:29.498Z,67.46
2019-04-22T05:47:02.698Z,67.74
2019-04-22T05:49:28.766Z,67.11
2019-04-22T05:51:55.000Z,66.25
2019-04-22T05:57:02.029Z,65.42
2019-04-22T05:59:32.189Z,66.93
2019-04-22T06:02:05.385Z,66.93
2019-04-22T06:04:29.700Z,64.52
2019-04-22T06:07:02.060Z,64.48
2019-04-22T06:09:36.819Z,64.41
2019-04-22T06:11:58.886Z,64.36
2019-04-22T06:14:40.363Z,63.92
2019-04-22T06:17:12.390Z,63.54
2019-04-22T06:19:44.571Z,63.51
2019-04-22T06:22:25.362Z,61.34
2019-04-22T06:24:43.696Z,62.46
2019-04-22T06:27:15.463Z,62.30
2019-04-22T06:29:41.880Z,60.82
2019-04-22T06:34:45.207Z,59.07
2019-04-22T06:37:18.614Z,59.89
2019-04-22T06:39:45.084Z,58.07
2019-04-22T06:42:17.546Z,59.13
2019-04-22T06:44:47.856Z,58.04
2019-04-22T06:47:38.304Z,54.32
2019-04-22T06:49:48.234Z,53.90
2019-04-22T06:54:48.900Z,52.76
2019-04-22T06:57:30.930Z,53.44
2019-04-22T07:00:08.313Z,52.01
2019-04-22T07:02:23.952Z,52.51
2019-04-22T07:04:49.448Z,53.64
2019-04-22T07:07:21.630Z,52.56
2019-04-22T07:09:54.421Z,52.44
2019-04-22T07:12:24.348Z,50.67
2019-04-22T07:14:54.572Z,51.22
2019-04-22T07:17:22.140Z,51.14
2019-04-22T07:19:51.153Z,49.96
2019-04-22T07:22:26.146Z,49.83
2019-04-22T07:24:55.831Z,48.22
2019-04-22T07:27:22.158Z,47.61
2019-04-22T07:30:06.309Z,46.48
2019-04-22T07:32:40.105Z,47.18
2019-04-22T07:35:01.069Z,47.57
2019-04-22T07:39:50.248Z,47.49
2019-04-22T07:44:59.206Z,48.65
2019-04-22T07:47:34.141Z,48.06
2019-04-22T07:50:03.079Z,46.36
2019-04-22T07:52:27.366Z,46.70
2019-04-22T07:54:56.846Z,45.61
2019-04-22T08:00:05.481Z,45.57
2019-04-22T08:02:31.801Z,45.76
2019-04-22T08:05:05.441Z,46.04
2019-04-22T08:07:29.752Z,45.31
2019-04-22T08:10:12.499Z,44.59
2019-04-22T08:12:36.315Z,43.30
2019-04-22T08:14:59.830Z,43.35
2019-04-22T08:17:51.811Z,41.69
2019-04-22T08:20:09.244Z,42.30
2019-04-22T08:22:39.814Z,40.82
2019-04-22T08:25:03.221Z,40.21
2019-04-22T08:27:35.585Z,40.98
2019-04-22T08:30:14.337Z,41.70
2019-04-22T08:32:34.977Z,39.22
2019-04-22T08:35:11.258Z,39.36
2019-04-22T08:37:50.749Z,41.58
2019-04-22T08:40:12.487Z,40.30
2019-04-22T08:42:43.413Z,39.63
2019-04-22T08:47:36.254Z,40.88
2019-04-22T08:50:12.282Z,41.61
2019-04-22T08:52:58.643Z,40.08
2019-04-22T08:55:14.340Z,38.92
2019-04-22T09:00:07.146Z,39.22
2019-04-22T09:05:20.432Z,37.73
2019-04-22T09:10:15.179Z,38.34
2019-04-22T09:12:57.959Z,40.68
2019-04-22T09:15:16.641Z,38.68
2019-04-22T09:17:42.257Z,39.02
2019-04-22T09:20:13.139Z,40.57
2019-04-22T09:22:41.150Z,39.53
2019-04-22T09:25:06.613Z,39.83
2019-04-22T09:27:48.383Z,40.07
2019-04-22T09:30:13.169Z,39.14
2019-04-22T09:32:44.945Z,39.10
2019-04-22T09:35:15.872Z,37.19
2019-04-22T09:37:55.866Z,38.14
2019-04-22T09:40:15.628Z,37.66
2019-04-22T09:45:19.654Z,40.47
2019-04-22T09:50:22.623Z,37.33
2019-04-22T09:52:51.601Z,38.94
2019-04-22T09:55:18.250Z,37.67
2019-04-22T09:57:50.947Z,37.87
2019-04-22T10:02:57.616Z,38.34
2019-04-22T10:05:20.998Z,38.46
2019-04-22T10:07:54.380Z,37.20
2019-04-22T10:10:20.465Z,38.02
2019-04-22T10:12:52.242Z,38.31
2019-04-22T10:15:23.300Z,37.59
2019-04-22T10:18:14.048Z,37.17
2019-04-22T10:20:27.085Z,36.75
2019-04-22T10:22:53.209Z,37.77
2019-04-22T10:25:23.202Z,36.22
2019-04-22T10:27:55.241Z,35.48
2019-04-22T10:30:35.930Z,36.42
2019-04-22T10:32:52.433Z,38.28
2019-04-22T10:35:15.434Z,37.46
2019-04-22T10:37:42.575Z,36.76
2019-04-22T10:40:32.388Z,36.20
2019-04-22T10:43:01.303Z,37.37
2019-04-22T10:45:30.359Z,35.85
2019-04-22T10:48:01.369Z,38.88
2019-04-22T10:50:41.119Z,38.06
2019-04-22T10:53:11.213Z,36.27
2019-04-22T10:55:43.371Z,36.30
2019-04-22T10:58:12.716Z,36.10
2019-04-22T11:00:42.038Z,36.76
2019-04-22T11:03:13.912Z,37.32
2019-04-22T11:05:44.288Z,35.90
2019-04-22T11:08:22.624Z,35.87
2019-04-22T11:11:00.692Z,36.56
2019-04-22T11:13:15.797Z,35.36
2019-04-22T11:15:44.666Z,37.64
2019-04-22T11:18:14.006Z,38.11
2019-04-22T11:20:43.895Z,37.63
2019-04-22T11:23:12.666Z,36.56
2019-04-22T11:25:41.622Z,36.54
2019-04-22T11:28:11.756Z,36.58
2019-04-22T11:30:40.849Z,37.88
2019-04-22T11:33:09.572Z,36.19
2019-04-22T11:35:39.486Z,36.08
2019-04-22T11:38:08.818Z,36.99
2019-04-22T11:40:40.334Z,36.13
2019-04-22T11:43:08.052Z,36.61
2019-04-22T11:45:37.355Z,37.53
2019-04-22T11:48:06.218Z,37.93
2019-04-22T11:50:35.754Z,37.76
2019-04-22T11:53:04.853Z,35.59
2019-04-22T11:55:34.896Z,34.90
2019-04-22T11:58:03.937Z,35.65
2019-04-22T12:00:34.966Z,35.79
2019-04-22T12:03:05.182Z,35.55
2019-04-22T12:05:34.377Z,36.86
2019-04-22T12:08:03.061Z,37.21
2019-04-22T12:10:40.238Z,37.04
2019-04-22T12:13:03.944Z,37.27
2019-04-22T12:15:33.015Z,36.78
2019-04-22T12:18:01.537Z,36.45
2019-04-22T12:20:30.089Z,36.75
2019-04-22T12:22:58.955Z,36.87
2019-04-22T12:25:34.723Z,36.72
2019-04-22T12:27:59.209Z,36.62
2019-04-22T12:30:28.156Z,39.83
2019-04-22T12:32:58.037Z,39.41
2019-04-22T12:35:28.287Z,37.50
2019-04-22T12:38:01.259Z,37.98
2019-04-22T12:40:38.267Z,39.33
2019-04-22T12:42:57.870Z,38.16
2019-04-22T12:45:26.739Z,38.18
2019-04-22T12:47:56.020Z,39.13
2019-04-22T12:50:31.546Z,39.08
2019-04-22T12:53:01.275Z,35.61
2019-04-22T12:55:27.961Z,37.16
2019-04-22T12:57:58.656Z,39.36
2019-04-22T13:00:27.424Z,36.83
2019-04-22T13:02:56.830Z,37.23
2019-04-22T13:05:27.065Z,35.94
2019-04-22T13:07:57.819Z,36.97
2019-04-22T13:10:39.103Z,38.09
2019-04-22T13:12:58.641Z,36.12
2019-04-22T13:15:28.905Z,36.97
2019-04-22T13:18:06.058Z,37.99
2019-04-22T13:20:28.286Z,38.16
2019-04-22T13:22:57.090Z,37.85
2019-04-22T13:25:29.964Z,38.81
2019-04-22T13:27:57.663Z,38.58
2019-04-22T13:30:28.407Z,37.73
2019-04-22T13:32:57.115Z,37.15
2019-04-22T13:35:28.042Z,39.25
2019-04-22T13:37:57.422Z,38.34
2019-04-22T13:40:26.646Z,37.25
2019-04-22T13:42:58.716Z,37.59
2019-04-22T13:45:27.845Z,37.65
2019-04-22T13:48:14.630Z,39.23
2019-04-22T13:51:00.877Z,37.68
2019-04-22T13:53:42.815Z,37.75
2019-04-22T13:55:56.926Z,38.02
2019-04-22T13:58:14.665Z,38.25
2019-04-22T14:00:34.429Z,37.99
2019-04-22T14:03:20.518Z,37.42
2019-04-22T14:05:50.940Z,38.49
2019-04-22T14:08:20.014Z,40.64
2019-04-22T14:10:50.195Z,38.72
2019-04-22T14:13:19.628Z,38.28
2019-04-22T14:15:48.761Z,39.70
2019-04-22T14:18:18.969Z,38.18
2019-04-22T14:20:49.025Z,37.19
2019-04-22T14:23:17.754Z,38.09
2019-04-22T14:25:46.473Z,38.21
2019-04-22T14:28:17.976Z,39.28
2019-04-22T14:30:46.373Z,39.34
2019-04-22T14:33:16.128Z,40.42
2019-04-22T14:35:45.773Z,37.58
2019-04-22T14:38:14.475Z,37.43
2019-04-22T14:40:45.322Z,37.58
2019-04-22T14:43:40.417Z,37.13
2019-04-22T14:46:19.276Z,38.93
2019-04-22T14:48:41.620Z,35.98
2019-04-22T14:51:00.633Z,36.01
2019-04-22T14:53:35.508Z,37.57
2019-04-22T14:55:46.512Z,38.35
2019-04-22T14:58:15.265Z,38.42
2019-04-22T15:00:45.714Z,37.05
2019-04-22T15:03:15.582Z,35.69
2019-04-22T15:05:44.344Z,36.29
2019-04-22T15:08:13.306Z,36.21
2019-04-22T15:10:42.341Z,35.62
2019-04-22T15:13:11.546Z,36.17
2019-04-22T15:16:03.011Z,35.39
2019-04-22T15:18:35.635Z,34.40
2019-04-22T15:21:11.893Z,34.93
2019-04-22T15:23:40.546Z,34.04
2019-04-22T15:26:10.494Z,32.93
2019-04-22T15:28:39.595Z,34.42
2019-04-22T15:31:09.125Z,34.83
2019-04-22T15:33:39.238Z,34.13
2019-04-22T15:36:09.885Z,33.51
2019-04-22T15:38:38.721Z,34.30
2019-04-22T15:41:07.352Z,34.03
2019-04-22T15:43:37.162Z,34.77
2019-04-22T15:46:05.886Z,34.45
2019-04-22T15:48:35.991Z,34.31
2019-04-22T15:51:05.017Z,35.06
2019-04-22T15:53:33.915Z,35.70
2019-04-22T15:56:03.072Z,36.12
2019-04-22T15:58:33.326Z,36.52
2019-04-22T16:01:12.686Z,36.72
2019-04-22T16:03:34.316Z,37.18
2019-04-22T16:06:03.988Z,36.58
2019-04-22T16:08:35.965Z,37.30
2019-04-22T16:11:04.090Z,38.18
2019-04-22T16:13:36.092Z,39.21
2019-04-22T16:16:03.118Z,38.98
2019-04-22T16:18:33.150Z,39.76
2019-04-22T16:21:02.911Z,40.70
2019-04-22T16:23:34.112Z,40.23
2019-04-22T16:26:07.793Z,40.44
2019-04-22T16:28:37.771Z,40.89
2019-04-22T16:31:07.235Z,41.41
2019-04-22T16:33:39.798Z,41.27
2019-04-22T16:36:07.240Z,41.80
2019-04-22T16:38:37.281Z,42.42
2019-04-22T16:41:06.722Z,42.05
2019-04-22T16:43:36.457Z,43.24
2019-04-22T16:46:05.736Z,42.92
2019-04-22T16:48:35.845Z,42.83
2019-04-22T16:51:06.208Z,43.82
2019-04-22T16:53:35.138Z,44.73
2019-04-22T16:56:04.771Z,44.93
2019-04-22T16:58:34.628Z,44.05
2019-04-22T17:01:05.136Z,43.82
2019-04-22T17:03:52.355Z,44.75
2019-04-22T17:06:23.424Z,44.83
2019-04-22T17:08:52.898Z,45.39
2019-04-22T17:11:22.141Z,45.54
2019-04-22T17:13:50.896Z,45.83
2019-04-22T17:16:20.218Z,45.06
2019-04-22T17:18:50.051Z,46.04
2019-04-22T17:21:19.655Z,46.09
2019-04-22T17:23:49.887Z,45.88
2019-04-22T17:26:18.865Z,46.34
2019-04-22T17:28:47.542Z,47.07
2019-04-22T17:31:16.566Z,46.87
2019-04-22T17:33:46.594Z,46.33
2019-04-22T17:36:16.369Z,47.37
2019-04-22T17:38:54.334Z,47.13
2019-04-22T17:41:26.665Z,48.03
2019-04-22T17:44:15.296Z,48.61
2019-04-22T17:46:41.713Z,48.68
2019-04-22T17:49:25.510Z,48.66
2019-04-22T17:52:15.633Z,48.80
2019-04-22T17:54:42.082Z,48.81
2019-04-22T17:57:12.326Z,49.37
2019-04-22T17:59:39.301Z,49.87
2019-04-22T18:02:08.611Z,50.22
2019-04-22T18:04:20.643Z,50.46
2019-04-22T18:07:19.158Z,51.25
2019-04-22T18:10:10.763Z,50.91
2019-04-22T18:12:20.517Z,51.54
2019-04-22T18:17:10.982Z,52.54
2019-04-22T18:19:39.931Z,52.92
2019-04-22T18:22:07.614Z,53.58
2019-04-22T18:24:32.662Z,52.60
2019-04-22T18:27:31.901Z,52.39
2019-04-22T18:29:43.515Z,53.54
2019-04-22T18:32:08.766Z,53.61
2019-04-22T18:34:42.895Z,53.76
2019-04-22T18:37:12.825Z,53.52
2019-04-22T18:39:52.801Z,54.51
2019-04-22T18:42:19.331Z,54.89
2019-04-22T18:44:55.318Z,54.84
2019-04-22T18:47:17.137Z,55.02
2019-04-22T18:49:46.097Z,54.87
2019-04-22T18:52:28.137Z,55.83
2019-04-22T18:55:03.909Z,56.07
2019-04-22T18:57:35.795Z,55.73
2019-04-22T18:59:52.122Z,57.71
2019-04-22T19:02:22.916Z,56.89
2019-04-22T19:04:56.116Z,58.04
2019-04-22T19:07:42.516Z,58.06
2019-04-22T19:10:23.608Z,57.54
2019-04-22T19:12:54.094Z,57.84
2019-04-22T19:15:16.350Z,57.08
2019-04-22T19:17:47.713Z,58.00
2019-04-22T19:20:15.900Z,58.30
2019-04-22T19:22:45.806Z,58.48
2019-04-22T19:25:05.892Z,58.34
2019-04-22T19:27:42.160Z,58.34
2019-04-22T19:30:16.381Z,58.00
2019-04-22T19:32:43.071Z,58.35
2019-04-22T19:35:14.171Z,58.85
2019-04-22T19:37:42.506Z,58.69
2019-04-22T19:40:24.312Z,59.24
2019-04-22T19:43:00.544Z,59.18
2019-04-22T19:45:17.633Z,59.07
2019-04-22T19:47:59.753Z,60.11
2019-04-22T19:50:24.487Z,60.60
2019-04-22T19:52:56.648Z,60.82
2019-04-22T19:55:23.422Z,60.61
2019-04-22T19:57:50.991Z,61.30
2019-04-22T20:00:19.608Z,60.76
2019-04-22T20:03:18.157Z,61.02
2019-04-22T20:05:50.569Z,61.61
2019-04-22T20:08:21.514Z,61.74
2019-04-22T20:10:51.123Z,61.73
2019-04-22T20:13:24.314Z,62.08
2019-04-22T20:15:43.297Z,61.07
2019-04-22T20:18:40.446Z,61.97
2019-04-22T20:20:59.657Z,61.77
2019-04-22T20:23:16.797Z,62.31
2019-04-22T20:25:48.681Z,62.73
2019-04-22T20:28:25.945Z,61.80
2019-04-22T20:30:50.482Z,62.41
2019-04-22T20:33:29.138Z,62.81
2019-04-22T20:36:01.457Z,62.95
2019-04-22T20:38:24.853Z,63.28
2019-04-22T20:40:55.041Z,62.81
2019-04-22T20:43:29.215Z,63.49
2019-04-22T20:46:00.594Z,62.77
2019-04-22T20:48:15.838Z,62.39
2019-04-22T20:51:02.586Z,62.34
2019-04-22T20:53:31.217Z,63.51
2019-04-22T20:56:00.718Z,62.09
2019-04-22T20:58:28.326Z,62.45
2019-04-22T21:00:53.383Z,63.40
2019-04-22T21:03:22.310Z,63.85
2019-04-22T21:05:51.871Z,62.10
2019-04-22T21:08:33.365Z,62.77
2019-04-22T21:10:53.473Z,61.88
2019-04-22T21:13:22.890Z,61.60
2019-04-22T21:16:05.332Z,62.00
2019-04-22T21:18:27.814Z,61.49
2019-04-22T21:21:02.321Z,61.17
2019-04-22T21:23:30.078Z,61.20
2019-04-22T21:26:02.379Z,61.73
2019-04-22T21:28:34.218Z,61.40
2019-04-22T21:31:01.584Z,61.11
2019-04-22T21:33:27.027Z,60.57
2019-04-22T21:36:14.233Z,60.25
2019-04-22T21:38:37.500Z,60.65
2019-04-22T21:41:08.413Z,60.78
2019-04-22T21:43:39.797Z,61.31
2019-04-22T21:46:09.109Z,60.55
2019-04-22T21:48:54.386Z,60.80
2019-04-22T21:51:11.170Z,60.40
2019-04-22T21:53:43.508Z,60.15
2019-04-22T21:56:25.370Z,59.79
2019-04-22T21:58:53.199Z,59.34
2019-04-22T22:03:54.908Z,60.06
2019-04-22T22:06:19.040Z,60.61
2019-04-22T22:08:57.855Z,60.24
2019-04-22T22:11:27.691Z,59.99
2019-04-22T22:13:59.461Z,60.73
2019-04-22T22:16:24.928Z,60.48
2019-04-22T22:19:00.910Z,60.98
2019-04-22T22:24:04.289Z,61.03
2019-04-22T22:26:26.385Z,61.38
2019-04-22T22:29:05.291Z,60.37
2019-04-22T22:31:36.674Z,60.96
2019-04-22T22:34:04.088Z,60.58
2019-04-22T22:36:23.663Z,60.74
2019-04-22T22:38:52.989Z,60.60
2019-04-22T22:41:11.966Z,60.72
2019-04-22T22:43:45.362Z,61.34
2019-04-22T22:46:22.807Z,60.94
2019-04-22T22:49:05.120Z,60.96
2019-04-22T22:51:40.303Z,60.79
2019-04-22T22:54:03.806Z,60.37
2019-04-22T22:56:42.233Z,60.00
2019-04-22T22:59:03.071Z,60.70
2019-04-22T23:01:35.998Z,60.40
2019-04-22T23:04:09.238Z,60.30
2019-04-22T23:06:40.629Z,60.28
2019-04-22T23:09:04.088Z,60.12
2019-04-22T23:11:52.283Z,59.81
2019-04-22T23:14:07.573Z,60.04
2019-04-22T23:16:25.182Z,60.48
2019-04-22T23:19:07.420Z,60.42
2019-04-22T23:21:43.539Z,60.45
2019-04-22T23:24:26.473Z,60.81
2019-04-22T23:27:07.108Z,60.37
2019-04-22T23:29:36.652Z,60.19
2019-04-22T23:32:09.190Z,59.96
2019-04-22T23:34:44.497Z,60.29
2019-04-22T23:37:21.963Z,61.08
2019-04-22T23:40:08.164Z,60.74
2019-04-22T23:42:27.004Z,61.09
2019-04-22T23:44:56.617Z,61.20
2019-04-22T23:47:26.491Z,60.53
2019-04-22T23:50:01.186Z,60.73
2019-04-22T23:52:35.766Z,60.93
2019-04-22T23:55:08.817Z,61.08
2019-04-22T23:57:55.789Z,61.27
